Time;durP1;ratioP1;P1;durP2;ratioP2;P2;SDS_P1;SDS_P2;PMS_P1;PMS_P2;Temp;Humidity;BMP_temperature;BMP_pressure;BME280_temperature;BME280_humidity;BME280_pressure;Samples;Min_cycle;Max_cycle;Signal;HPM_P1;HPM_P2
2023/08/24 00:02:18;;;;;;;;;;;;;;;23.85;47.05;99158.12;67692;1280;1015930;-61
2023/08/24 00:05:21;;;;;;;28.10;8.20;;;;;;;23.76;47.29;99160.88;67741;1280;1015755;-62
2023/08/24 00:08:23;;;;;;;33.80;9.60;;;;;;;23.86;47.06;99161.74;67765;1279;1019498;-61
2023/08/24 00:11:26;;;;;;;27.30;6.60;;;;;;;23.71;47.39;99159.87;67782;1280;1016358;-61
2023/08/24 00:14:28;;;;;;;26.00;7.50;;;;;;;23.58;47.67;99160.38;67705;1279;1019770;-61
2023/08/24 00:17:31;;;;;;;18.50;5.00;;;;;;;23.57;47.69;99161.38;67700;1279;1016345;-61
2023/08/24 00:20:33;;;;;;;;;;;;;;;23.66;47.51;99160.39;67793;1280;1018588;-61
2023/08/24 00:23:36;;;;;;;15.90;4.30;;;;;;;23.54;48.01;99162.83;67794;1279;1018045;-61
2023/08/24 00:26:38;;;;;;;;;;;;;;;23.71;48.00;99162.39;67699;1279;1016384;-61
2023/08/24 00:29:41;;;;;;;;;;;;;;;23.66;47.37;99160.19;67738;1280;1017988;-61
2023/08/24 00:32:43;;;;;;;16.60;3.60;;;;;;;23.65;47.19;99160.86;67758;1280;1018252;-61
2023/08/24 00:35:46;;;;;;;12.70;4.10;;;;;;;23.37;47.66;99160.13;67752;1280;1016446;-61
2023/08/24 00:38:51;;;;;;;17.60;4.20;;;;;;;22.94;48.54;99162.40;67730;1280;1016436;-62
2023/08/24 00:41:54;;;;;;;13.10;4.00;;;;;;;22.81;49.01;99162.45;67752;1280;1016446;-61
2023/08/24 00:44:57;;;;;;;14.10;3.90;;;;;;;22.81;49.14;99166.34;67723;1280;1019424;-62
2023/08/24 00:47:59;;;;;;;12.80;4.00;;;;;;;22.81;49.34;99167.77;67765;1279;1016474;-61
2023/08/24 00:51:02;;;;;;;11.40;4.00;;;;;;;22.66;49.48;99166.53;67751;1280;1016437;-61
2023/08/24 00:54:05;;;;;;;19.80;5.30;;;;;;;22.50;49.67;99161.05;67776;1280;1016529;-61
2023/08/24 00:57:08;;;;;;;16.70;4.70;;;;;;;22.39;49.90;99162.05;67774;1279;1016512;-61
2023/08/24 01:00:11;;;;;;;15.90;4.40;;;;;;;22.45;49.90;99162.26;67738;1280;1018723;-61
2023/08/24 01:03:13;;;;;;;13.70;4.20;;;;;;;22.39;49.88;99168.12;67792;1279;1016493;-61
2023/08/24 01:06:16;;;;;;;10.50;2.90;;;;;;;22.16;49.95;99167.73;67777;1280;1016284;-62
2023/08/24 01:09:18;;;;;;;;;;;;;;;22.01;49.97;99170.02;67770;1279;1016090;-61
2023/08/24 01:12:20;;;;;;;15.10;4.20;;;;;;;22.04;50.09;99172.11;67670;1280;1017728;-61
2023/08/24 01:15:23;;;;;;;;;;;;;;;22.05;50.12;99176.42;67747;1279;1016467;-61
2023/08/24 01:18:26;;;;;;;17.40;4.40;;;;;;;22.04;50.03;99179.35;67724;1280;1016621;-61
2023/08/24 01:21:29;;;;;;;15.70;4.10;;;;;;;21.98;50.21;99177.96;67730;1280;1016174;-62
2023/08/24 01:24:32;;;;;;;;;;;;;;;21.96;50.39;99176.91;67807;1280;1016502;-61
2023/08/24 01:27:35;;;;;;;14.60;4.10;;;;;;;21.94;50.43;99177.59;67803;1280;1016419;-62
2023/08/24 01:30:37;;;;;;;10.90;3.50;;;;;;;21.96;50.28;99174.98;67730;1280;1016546;-61
2023/08/24 01:33:40;;;;;;;;;;;;;;;21.86;50.28;99175.14;67788;1280;1016361;-61
2023/08/24 01:36:42;;;;;;;19.10;5.40;;;;;;;21.84;50.24;99173.26;67760;1280;1016186;-62
2023/08/24 01:39:45;;;;;;;27.70;7.40;;;;;;;21.87;50.30;99170.58;67761;1279;1016509;-61
2023/08/24 01:42:47;;;;;;;;;;;;;;;21.92;50.29;99168.86;67758;1280;1016444;-61
2023/08/24 01:45:49;;;;;;;11.00;3.70;;;;;;;21.91;50.16;99170.67;67721;1280;1016481;-61
2023/08/24 01:48:52;;;;;;;14.20;4.50;;;;;;;21.90;49.94;99171.69;67778;1279;1016441;-61
2023/08/24 01:51:54;;;;;;;17.90;4.40;;;;;;;21.69;50.57;99173.80;67796;1279;1016711;-61
2023/08/24 01:54:57;;;;;;;11.30;3.80;;;;;;;21.68;50.45;99169.83;67769;1279;1016588;-61
2023/08/24 01:57:59;;;;;;;17.30;4.10;;;;;;;21.67;50.04;99164.11;67750;1279;1016436;-60
2023/08/24 02:01:02;;;;;;;;;;;;;;;21.60;50.04;99158.70;67761;1280;1016330;-61
2023/08/24 02:04:04;;;;;;;16.50;4.00;;;;;;;21.73;49.59;99156.73;67746;1280;1016278;-62
2023/08/24 02:07:06;;;;;;;13.80;3.20;;;;;;;21.82;49.12;99157.17;67752;1279;1016488;-62
2023/08/24 02:10:09;;;;;;;8.70;2.90;;;;;;;21.67;49.40;99150.87;67732;1279;1016707;-62
2023/08/24 02:13:12;;;;;;;13.80;4.00;;;;;;;21.44;49.97;99148.55;67727;1279;1018170;-61
2023/08/24 02:16:14;;;;;;;;;;;;;;;21.45;50.04;99147.78;67812;1280;1016434;-61
2023/08/24 02:19:17;;;;;;;;;;;;;;;21.38;50.06;99148.07;67797;1279;1016435;-61
2023/08/24 02:22:19;;;;;;;11.30;3.50;;;;;;;21.32;50.27;99153.00;67721;1279;1016419;-61
2023/08/24 02:25:22;;;;;;;;;;;;;;;21.30;50.18;99149.40;67745;1280;1016528;-60
2023/08/24 02:28:24;;;;;;;12.70;3.80;;;;;;;21.17;50.19;99147.88;67755;1279;1016352;-61
2023/08/24 02:31:27;;;;;;;;;;;;;;;21.16;50.26;99146.41;67788;1280;1016243;-61
2023/08/24 02:34:29;;;;;;;14.50;3.50;;;;;;;21.19;50.33;99146.95;67750;1279;1018984;-61
2023/08/24 02:37:32;;;;;;;15.30;4.00;;;;;;;21.13;50.30;99144.93;67769;1279;1016423;-61
2023/08/24 02:40:35;;;;;;;11.60;3.40;;;;;;;21.05;50.45;99147.48;67783;1279;1016158;-61
2023/08/24 02:43:37;;;;;;;10.90;3.30;;;;;;;20.93;50.53;99147.45;67704;1279;1016865;-59
2023/08/24 02:46:40;;;;;;;;;;;;;;;20.86;50.60;99142.66;67731;1279;1016486;-61
2023/08/24 02:49:42;;;;;;;13.00;3.60;;;;;;;20.83;50.55;99140.30;67769;1280;1016909;-61
2023/08/24 02:52:45;;;;;;;14.00;3.90;;;;;;;20.79;50.89;99142.03;67768;1280;1016278;-61
2023/08/24 02:55:48;;;;;;;17.00;4.30;;;;;;;20.63;51.07;99142.67;67731;1279;1016948;-61
2023/08/24 02:58:50;;;;;;;;;;;;;;;20.60;51.02;99146.15;67756;1279;1016169;-61
2023/08/24 03:01:53;;;;;;;9.30;2.70;;;;;;;20.46;51.21;99147.05;67779;1279;1016271;-61
2023/08/24 03:04:56;;;;;;;11.00;3.10;;;;;;;20.44;51.10;99148.42;67750;1280;1015980;-62
2023/08/24 03:07:58;;;;;;;10.60;3.40;;;;;;;20.39;51.26;99144.80;67697;1280;1016507;-62
2023/08/24 03:11:01;;;;;;;;;;;;;;;20.35;51.51;99146.98;67736;1280;1016522;-61
2023/08/24 03:14:03;;;;;;;7.90;3.00;;;;;;;20.37;51.28;99148.41;67765;1279;1016505;-62
2023/08/24 03:17:07;;;;;;;11.80;3.30;;;;;;;20.32;51.13;99148.51;67718;1279;1019020;-61
2023/08/24 03:20:10;;;;;;;11.20;3.40;;;;;;;20.31;51.08;99147.17;67726;1279;1016430;-61
2023/08/24 03:23:14;;;;;;;11.70;3.30;;;;;;;20.34;51.11;99144.21;67721;1279;1016500;-61
2023/08/24 03:26:20;;;;;;;12.80;3.30;;;;;;;20.25;51.26;99139.64;67719;1279;1016310;-61
2023/08/24 03:29:23;;;;;;;11.90;3.50;;;;;;;20.35;50.96;99140.62;67697;1279;1015893;-61
2023/08/24 03:32:25;;;;;;;15.80;3.90;;;;;;;20.35;50.86;99144.49;67757;1280;1016509;-62
2023/08/24 03:35:28;;;;;;;;;;;;;;;20.37;50.71;99147.41;67767;1280;1018818;-61
2023/08/24 03:38:30;;;;;;;15.60;3.80;;;;;;;20.34;50.68;99146.73;67701;1280;1016426;-61
2023/08/24 03:41:33;;;;;;;10.80;3.40;;;;;;;20.29;50.76;99147.72;67757;1280;1016168;-61
2023/08/24 03:44:36;;;;;;;11.60;3.50;;;;;;;20.34;50.73;99151.40;67773;1280;1016440;-61
2023/08/24 03:47:38;;;;;;;12.20;3.60;;;;;;;20.38;50.59;99149.02;67678;1280;1016369;-61
2023/08/24 03:50:41;;;;;;;12.30;3.50;;;;;;;20.32;50.70;99148.91;67717;1279;1016427;-61
2023/08/24 03:53:44;;;;;;;11.00;3.30;;;;;;;20.32;50.69;99150.28;67739;1279;1016532;-61
2023/08/24 03:56:46;;;;;;;10.20;3.10;;;;;;;20.38;50.62;99154.02;67747;1280;1016437;-61
2023/08/24 03:59:50;;;;;;;11.60;3.00;;;;;;;20.40;50.70;99151.08;67721;1279;1015969;-61
2023/08/24 04:02:52;;;;;;;13.20;3.20;;;;;;;20.37;50.87;99152.27;67744;1280;1017866;-61
2023/08/24 04:05:55;;;;;;;11.50;3.20;;;;;;;20.37;50.79;99152.83;67693;1280;1016418;-61
2023/08/24 04:08:57;;;;;;;13.70;3.80;;;;;;;20.49;50.94;99150.11;67735;1279;1016296;-61
2023/08/24 04:12:00;;;;;;;;;;;;;;;20.60;50.73;99149.73;67749;1279;1016516;-62
2023/08/24 04:15:03;;;;;;;15.70;3.50;;;;;;;20.84;50.18;99154.87;67684;1279;1016394;-61
2023/08/24 04:18:06;;;;;;;14.30;3.50;;;;;;;20.98;50.20;99152.10;67745;1280;1016458;-61
2023/08/24 04:21:08;;;;;;;;;;;;;;;21.10;50.09;99155.73;67753;1280;1016408;-61
2023/08/24 04:24:11;;;;;;;12.90;3.80;;;;;;;21.23;49.99;99155.32;67686;1279;1016317;-61
2023/08/24 04:27:13;;;;;;;8.60;3.00;;;;;;;21.48;49.68;99154.40;67691;1280;1016987;-62
2023/08/24 04:30:16;;;;;;;15.50;3.80;;;;;;;21.69;49.40;99159.95;67743;1279;1016266;-61
2023/08/24 04:33:18;;;;;;;10.30;3.10;;;;;;;21.83;49.09;99160.17;67690;1280;1016167;-60
2023/08/24 04:36:21;;;;;;;;;;;;;;;21.94;49.14;99157.55;67733;1280;1016506;-61
2023/08/24 04:39:24;;;;;;;9.70;2.90;;;;;;;22.07;49.27;99156.80;67706;1279;1019028;-62
2023/08/24 04:42:26;;;;;;;11.80;3.00;;;;;;;22.18;49.45;99159.95;67734;1279;1015855;-61
2023/08/24 04:45:29;;;;;;;;;;;;;;;22.27;49.43;99161.90;67695;1279;1016363;-61
2023/08/24 04:48:34;;;;;;;10.90;3.20;;;;;;;22.37;49.52;99158.48;67696;1279;1016449;-62
2023/08/24 04:51:36;;;;;;;11.60;3.20;;;;;;;22.58;49.35;99152.94;67714;1280;1016503;-61
2023/08/24 04:54:39;;;;;;;;;;;;;;;22.71;49.54;99153.84;67689;1280;1016124;-61
2023/08/24 04:57:43;;;;;;;12.80;3.40;;;;;;;22.99;49.27;99150.21;67723;1280;1016354;-62
2023/08/24 05:00:45;;;;;;;12.40;3.40;;;;;;;23.22;49.02;99148.48;67706;1279;1016457;-62
2023/08/24 05:03:47;;;;;;;;;;;;;;;23.39;49.12;99142.86;67722;1279;1015932;-62
2023/08/24 05:06:50;;;;;;;15.20;3.50;;;;;;;23.61;49.17;99141.89;67728;1279;1016570;-61
2023/08/24 05:09:52;;;;;;;;;;;;;;;24.24;48.29;99142.40;67730;1279;1016490;-62
2023/08/24 05:12:55;;;;;;;11.40;3.30;;;;;;;24.44;48.04;99140.97;67681;1279;1016185;-61
2023/08/24 05:15:59;;;;;;;;;;;;;;;24.65;47.91;99139.10;67724;1279;1016184;-62
2023/08/24 05:19:03;;;;;;;13.30;3.10;;;;;;;24.91;48.09;99140.24;67735;1279;1016368;-61
2023/08/24 05:22:05;;;;;;;13.20;4.00;;;;;;;25.09;47.84;99140.31;67649;1280;1016403;-62
2023/08/24 05:25:07;;;;;;;;;;;;;;;25.36;47.52;99144.38;67713;1279;1016082;-62
2023/08/24 05:28:10;;;;;;;14.20;3.70;;;;;;;25.42;47.69;99148.45;67709;1279;1016543;-61
2023/08/24 05:31:12;;;;;;;9.00;3.30;;;;;;;25.47;47.95;99150.14;67738;1279;1016064;-61
2023/08/24 05:34:15;;;;;;;10.70;3.30;;;;;;;25.74;47.92;99147.81;67673;1279;1016193;-61
2023/08/24 05:37:17;;;;;;;15.20;3.70;;;;;;;26.00;47.69;99149.73;67674;1279;1018660;-61
2023/08/24 05:40:20;;;;;;;14.10;4.10;;;;;;;26.02;47.65;99154.52;67720;1279;1016796;-61
2023/08/24 05:43:22;;;;;;;14.30;4.50;;;;;;;26.03;47.98;99151.35;67717;1279;1016625;-61
2023/08/24 05:46:27;;;;;;;17.50;5.30;;;;;;;26.30;47.97;99154.89;67662;1279;1016386;-62
2023/08/24 05:49:30;;;;;;;16.70;5.30;;;;;;;26.57;47.47;99152.83;67670;1279;1016664;-61
2023/08/24 05:52:33;;;;;;;20.70;5.20;;;;;;;26.86;47.28;99150.36;67662;1279;1016407;-61
2023/08/24 05:55:35;;;;;;;18.40;5.40;;;;;;;27.28;46.51;99153.02;67658;1279;1016577;-61
2023/08/24 05:58:40;;;;;;;19.30;5.10;;;;;;;27.62;46.29;99152.11;67689;1279;1016259;-62
2023/08/24 06:01:43;;;;;;;18.60;6.10;;;;;;;27.83;46.01;99150.52;67687;1279;1018905;-62
2023/08/24 06:04:50;;;;;;;20.90;6.30;;;;;;;27.95;45.61;99146.70;67703;1279;1016916;-61
2023/08/24 06:07:54;;;;;;;22.70;6.40;;;;;;;28.20;45.35;99147.25;67686;1279;1016296;-61
2023/08/24 06:10:57;;;;;;;21.10;7.10;;;;;;;28.33;45.48;99144.01;67691;1279;1015815;-61
2023/08/24 06:14:00;;;;;;;21.30;7.10;;;;;;;28.42;45.36;99143.20;67658;1279;1016477;-61
2023/08/24 06:17:03;;;;;;;27.60;8.40;;;;;;;28.61;45.29;99144.52;67725;1279;1016118;-61
2023/08/24 06:20:05;;;;;;;25.90;8.20;;;;;;;28.90;45.15;99146.02;67658;1279;1016610;-61
2023/08/24 06:23:08;;;;;;;24.40;7.80;;;;;;;29.16;44.54;99150.63;67649;1279;1015989;-61
2023/08/24 06:26:11;;;;;;;26.00;8.10;;;;;;;29.28;44.12;99149.91;67715;1279;1016454;-62
2023/08/24 06:29:14;;;;;;;25.50;9.00;;;;;;;29.32;43.97;99150.90;67644;1278;1016369;-61
2023/08/24 06:32:16;;;;;;;24.00;9.10;;;;;;;29.39;44.40;99148.16;67713;1279;1016499;-62
2023/08/24 06:35:19;;;;;;;24.90;9.00;;;;;;;29.78;43.68;99146.10;67722;1279;1016337;-61
2023/08/24 06:38:21;;;;;;;32.80;11.40;;;;;;;30.14;42.93;99142.07;67672;1279;1015991;-61
2023/08/24 06:41:24;;;;;;;23.80;9.70;;;;;;;30.21;43.11;99145.00;67668;1279;1016502;-62
2023/08/24 06:44:26;;;;;;;28.60;9.70;;;;;;;30.60;43.09;99142.80;67716;1279;1016477;-60
2023/08/24 06:47:29;;;;;;;28.00;9.20;;;;;;;30.87;42.43;99133.27;67704;1279;1016586;-61
2023/08/24 06:50:32;;;;;;;25.60;9.40;;;;;;;31.23;41.71;99141.25;67653;1279;1016432;-61
2023/08/24 06:53:34;;;;;;;23.10;8.40;;;;;;;31.37;41.72;99147.43;67725;1279;1016286;-61
2023/08/24 06:56:37;;;;;;;25.90;8.50;;;;;;;31.53;41.56;99148.60;67731;1279;1016709;-61
2023/08/24 06:59:39;;;;;;;23.50;7.80;;;;;;;31.78;41.33;99151.95;67656;1280;1019037;-61
2023/08/24 07:02:42;;;;;;;24.90;7.40;;;;;;;32.05;41.34;99153.63;67677;1279;1016472;-62
2023/08/24 07:05:46;;;;;;;19.60;6.40;;;;;;;32.43;41.13;99155.13;67743;1279;1016470;-61
2023/08/24 07:08:49;;;;;;;24.80;6.60;;;;;;;32.68;39.95;99147.88;67700;1279;1016408;-61
2023/08/24 07:11:52;;;;;;;16.50;4.80;;;;;;;32.95;39.38;99152.39;67678;1279;1017006;-60
2023/08/24 07:14:54;;;;;;;16.00;4.50;;;;;;;33.04;38.54;99156.55;67684;1279;1016227;-60
2023/08/24 07:17:57;;;;;;;14.10;3.90;;;;;;;32.90;37.31;99157.70;67709;1280;1016971;-61
2023/08/24 07:20:59;;;;;;;13.30;3.50;;;;;;;33.15;37.43;99160.73;67618;1280;1018186;-60
2023/08/24 07:24:02;;;;;;;14.80;3.70;;;;;;;32.88;35.87;99164.09;67630;1280;1016337;-60
2023/08/24 07:27:05;;;;;;;12.40;3.60;;;;;;;32.38;36.16;99163.66;67644;1281;1016409;-58
2023/08/24 07:30:09;;;;;;;11.60;3.50;;;;;;;32.18;35.95;99166.23;67629;1281;1016081;-60
2023/08/24 07:33:11;;;;;;;14.60;3.50;;;;;;;32.25;35.85;99155.31;67591;1281;1019251;-61
2023/08/24 07:36:14;;;;;;;11.70;3.20;;;;;;;32.35;35.76;99155.23;67591;1281;1016434;-61
2023/08/24 07:39:17;;;;;;;15.20;4.00;;;;;;;32.64;36.61;99150.34;67606;1281;1016526;-60
2023/08/24 07:42:19;;;;;;;12.80;3.40;;;;;;;33.15;36.50;99151.39;67650;1281;1016818;-60
2023/08/24 07:45:23;;;;;;;11.50;3.30;;;;;;;33.55;35.14;99150.31;67588;1280;1015585;-60
2023/08/24 07:48:25;;;;;;;13.40;3.40;;;;;;;33.89;35.36;99148.70;67709;1280;1016371;-61
2023/08/24 07:51:28;;;;;;;13.40;3.20;;;;;;;34.36;34.65;99148.83;67618;1280;1016477;-61
2023/08/24 07:54:31;;;;;;;14.60;3.10;;;;;;;34.48;33.63;99144.83;67693;1280;1016115;-60
2023/08/24 07:57:33;;;;;;;12.10;3.10;;;;;;;34.08;32.47;99143.88;67662;1280;1016764;-61
2023/08/24 08:00:37;;;;;;;14.80;2.80;;;;;;;33.43;32.07;99147.09;67666;1280;1016522;-60
2023/08/24 08:03:39;;;;;;;12.80;3.10;;;;;;;33.39;31.94;99146.50;67702;1280;1016197;-59
2023/08/24 08:06:41;;;;;;;11.80;2.80;;;;;;;33.46;31.57;99146.29;67688;1280;1016371;-61
2023/08/24 08:09:44;;;;;;;12.80;2.90;;;;;;;33.30;30.64;99148.75;67655;1280;1017206;-61
2023/08/24 08:12:46;;;;;;;8.50;2.50;;;;;;;33.27;31.73;99151.20;67676;1277;1016098;-60
2023/08/24 08:15:49;;;;;;;8.40;2.70;;;;;;;33.83;32.08;99148.02;67682;1280;1016158;-59
2023/08/24 08:18:52;;;;;;;7.90;2.50;;;;;;;34.31;31.02;99147.86;67707;1280;1016391;-61
2023/08/24 08:21:54;;;;;;;6.20;2.30;;;;;;;34.28;29.89;99146.54;67650;1280;1016528;-61
2023/08/24 08:24:57;;;;;;;10.40;2.90;;;;;;;34.03;29.56;99150.85;67635;1280;1016404;-61
2023/08/24 08:28:00;;;;;;;9.40;2.40;;;;;;;34.11;30.75;99148.59;67674;1280;1016482;-60
2023/08/24 08:31:05;;;;;;;7.70;2.30;;;;;;;34.41;29.20;99151.60;67651;1280;1016480;-61
2023/08/24 08:34:08;;;;;;;9.00;2.60;;;;;;;34.16;29.18;99154.08;67653;1280;1016405;-61
2023/08/24 08:37:11;;;;;;;9.40;2.40;;;;;;;34.14;29.15;99148.11;67668;1280;1016216;-61
2023/08/24 08:40:13;;;;;;;8.90;2.60;;;;;;;34.28;28.83;99144.88;67742;1280;1016591;-61
2023/08/24 08:43:16;;;;;;;7.60;2.50;;;;;;;34.57;28.35;99142.34;67731;1280;1017136;-61
2023/08/24 08:46:18;;;;;;;7.90;2.60;;;;;;;34.35;28.07;99143.16;67732;1280;1016657;-61
2023/08/24 08:49:21;;;;;;;9.70;3.00;;;;;;;34.18;28.48;99149.33;67656;1280;1016376;-60
2023/08/24 08:52:25;;;;;;;7.40;2.20;;;;;;;34.21;28.82;99153.85;67702;1280;1016166;-61
2023/08/24 08:55:28;;;;;;;8.20;2.60;;;;;;;34.36;28.34;99149.23;67728;1280;1016380;-62
2023/08/24 08:58:30;;;;;;;8.60;2.50;;;;;;;34.81;28.27;99137.95;67715;1280;1016466;-61
2023/08/24 09:01:33;;;;;;;10.10;2.70;;;;;;;34.71;28.13;99139.10;67660;1280;1016332;-61
2023/08/24 09:04:36;;;;;;;8.50;2.50;;;;;;;34.61;27.61;99138.14;66386;1280;1016712;-61
2023/08/24 09:07:39;;;;;;;9.10;2.50;;;;;;;34.79;27.99;99129.67;67679;1280;1016537;-61
2023/08/24 09:10:41;;;;;;;7.40;2.40;;;;;;;34.98;28.20;99129.65;67726;1280;1016537;-61
2023/08/24 09:13:44;;;;;;;9.40;2.90;;;;;;;35.51;28.53;99125.91;67741;1280;1016264;-61
2023/08/24 09:16:46;;;;;;;9.00;2.70;;;;;;;35.86;26.94;99133.91;67705;1280;1016507;-61
2023/08/24 09:19:49;;;;;;;7.60;2.20;;;;;;;35.39;26.51;99134.84;67688;1280;1018473;-59
2023/08/24 09:22:54;;;;;;;6.00;2.30;;;;;;;35.47;27.74;99130.39;67725;1280;1016409;-61
2023/08/24 09:25:56;;;;;;;13.80;2.40;;;;;;;35.77;26.77;99129.95;67727;1280;1018407;-61
2023/08/24 09:28:59;;;;;;;6.90;2.50;;;;;;;35.68;27.79;99124.80;67671;1280;1016781;-61
2023/08/24 09:32:01;;;;;;;9.20;2.50;;;;;;;35.70;27.09;99119.98;67752;1280;1016498;-61
2023/08/24 09:35:05;;;;;;;10.50;2.80;;;;;;;35.66;26.84;99123.63;67737;1280;1016484;-61
2023/08/24 09:38:08;;;;;;;10.10;2.90;;;;;;;35.57;26.91;99117.34;67765;1280;1016463;-61
2023/08/24 09:41:10;;;;;;;10.40;2.70;;;;;;;35.84;27.08;99116.64;67731;1280;1016540;-61
2023/08/24 09:44:13;;;;;;;9.30;2.80;;;;;;;36.08;27.21;99116.17;67666;1280;1016033;-61
2023/08/24 09:47:16;;;;;;;10.70;2.80;;;;;;;36.35;26.88;99112.81;67710;1280;1016556;-60
2023/08/24 09:50:18;;;;;;;6.70;2.40;;;;;;;36.33;25.88;99115.00;67742;1280;1016149;-60
2023/08/24 09:53:21;;;;;;;9.40;2.50;;;;;;;35.87;25.88;99119.52;67711;1280;1016073;-61
2023/08/24 09:56:24;;;;;;;8.40;2.30;;;;;;;35.82;26.39;99113.66;67658;1280;1016478;-61
2023/08/24 09:59:27;;;;;;;10.30;2.70;;;;;;;36.04;26.30;99109.37;67683;1280;1016410;-60
2023/08/24 10:02:30;;;;;;;8.80;2.60;;;;;;;36.15;26.21;99108.19;67728;1279;1016299;-61
2023/08/24 10:05:32;;;;;;;10.00;2.60;;;;;;;36.46;26.76;99105.66;67725;1280;1018881;-60
2023/08/24 10:08:35;;;;;;;11.90;2.80;;;;;;;36.44;25.63;99101.77;67689;1280;1019241;-59
2023/08/24 10:11:37;;;;;;;7.60;2.50;;;;;;;35.97;25.89;99108.69;67685;1276;1016518;-62
2023/08/24 10:14:40;;;;;;;9.40;2.70;;;;;;;35.73;26.06;99106.04;67720;1280;1018833;-60
2023/08/24 10:17:43;;;;;;;6.90;2.50;;;;;;;36.36;26.09;99098.83;67725;1280;1016373;-59
2023/08/24 10:20:46;;;;;;;7.10;2.40;;;;;;;36.75;26.08;99105.75;67678;1280;1016499;-59
2023/08/24 10:23:48;;;;;;;8.90;2.50;;;;;;;36.30;25.73;99111.98;67771;1280;1016269;-60
2023/08/24 10:26:51;;;;;;;8.60;2.70;;;;;;;36.16;25.83;99111.65;67748;1280;1016663;-59
2023/08/24 10:29:53;;;;;;;8.70;2.70;;;;;;;36.58;25.95;99110.70;67703;1280;1015988;-60
2023/08/24 10:32:56;;;;;;;11.20;2.70;;;;;;;36.95;25.46;99110.04;67681;1280;1016446;-60
2023/08/24 10:35:58;;;;;;;10.40;2.90;;;;;;;36.96;25.08;99108.20;67745;1280;1016151;-60
2023/08/24 10:39:01;;;;;;;9.80;2.60;;;;;;;37.38;25.95;99096.48;67675;1277;1016511;-60
2023/08/24 10:42:03;;;;;;;9.20;2.70;;;;;;;37.91;25.30;99095.59;67710;1280;1016223;-60
2023/08/24 10:45:06;;;;;;;12.20;3.00;;;;;;;37.89;24.54;99096.73;67717;1280;1016177;-58
2023/08/24 10:48:08;;;;;;;7.70;2.70;;;;;;;37.70;24.90;99094.71;67745;1280;1016452;-58
2023/08/24 10:51:11;;;;;;;12.60;2.70;;;;;;;37.31;25.11;99093.20;67748;1280;1016228;-58
2023/08/24 10:54:13;;;;;;;9.40;3.00;;;;;;;36.66;25.65;99093.42;67689;1280;1016931;-60
2023/08/24 10:57:15;;;;;;;10.20;2.80;;;;;;;36.73;25.74;99095.44;67668;1280;1016248;-60
2023/08/24 11:00:21;;;;;;;16.30;3.30;;;;;;;36.98;25.80;99094.59;67718;1274;1016237;-60
2023/08/24 11:03:24;;;;;;;12.00;3.40;;;;;;;36.88;25.12;99093.08;67714;1280;1016397;-61
2023/08/24 11:06:28;;;;;;;9.40;3.00;;;;;;;36.85;24.60;99083.92;67753;1272;1016367;-58
2023/08/24 11:09:30;;;;;;;11.90;3.10;;;;;;;36.79;24.35;99088.24;67750;1276;1016770;-61
2023/08/24 11:12:35;;;;;;;11.00;2.90;;;;;;;36.90;25.05;99085.66;67721;1277;1016375;-60
2023/08/24 11:15:38;;;;;;;12.40;3.30;;;;;;;37.29;24.57;99085.39;67687;1280;1018048;-59
2023/08/24 11:18:40;;;;;;;10.20;2.80;;;;;;;37.10;24.05;99084.06;67747;1280;1016879;-59
2023/08/24 11:21:42;;;;;;;10.30;3.20;;;;;;;37.21;24.65;99077.44;67735;1280;1016351;-60
2023/08/24 11:24:45;;;;;;;11.30;2.90;;;;;;;37.49;25.08;99074.74;67748;1280;1016848;-60
2023/08/24 11:27:47;;;;;;;12.90;3.00;;;;;;;37.21;24.48;99074.16;67694;1280;1016424;-60
2023/08/24 11:30:50;;;;;;;13.00;3.20;;;;;;;37.14;24.66;99067.00;67693;1280;1016244;-60
2023/08/24 11:33:53;;;;;;;14.80;3.40;;;;;;;37.56;25.13;99060.98;67774;1280;1016290;-59
2023/08/24 11:36:55;;;;;;;13.90;3.10;;;;;;;37.94;24.18;99058.22;67706;1279;1016287;-60
2023/08/24 11:39:57;;;;;;;11.20;3.10;;;;;;;38.60;24.62;99051.45;67732;1257;1016306;-60
2023/08/24 11:43:00;;;;;;;9.20;2.90;;;;;;;39.31;23.76;99041.33;67735;1280;1016478;-60
2023/08/24 11:46:02;;;;;;;10.30;2.90;;;;;;;38.95;23.07;99043.73;67764;1280;1016794;-59
2023/08/24 11:49:05;;;;;;;12.10;3.00;;;;;;;39.34;23.05;99038.15;67744;1280;1016627;-60
2023/08/24 11:52:07;;;;;;;12.30;3.20;;;;;;;39.31;22.23;99038.87;67712;1280;1016396;-60
2023/08/24 11:55:10;;;;;;;8.40;2.90;;;;;;;39.26;22.29;99030.33;67711;1280;1016293;-60
2023/08/24 11:58:12;;;;;;;7.00;2.90;;;;;;;39.26;22.82;99029.77;67750;1279;1017474;-59
2023/08/24 12:01:14;;;;;;;8.00;2.90;;;;;;;39.07;22.44;99026.45;67771;1280;1016434;-59
2023/08/24 12:04:17;;;;;;;11.70;3.10;;;;;;;38.83;22.53;99029.60;67720;1280;1018459;-59
2023/08/24 12:07:19;;;;;;;9.50;3.00;;;;;;;38.91;22.78;99027.94;67737;1280;1016852;-59
2023/08/24 12:10:22;;;;;;;11.70;3.50;;;;;;;39.26;23.56;99023.96;67710;1280;1016284;-59
2023/08/24 12:13:24;;;;;;;8.00;2.80;;;;;;;39.32;23.24;99023.36;67716;1280;1016478;-59
2023/08/24 12:16:27;;;;;;;11.00;3.10;;;;;;;38.58;22.71;99026.16;67759;1280;1016414;-58
2023/08/24 12:19:29;;;;;;;12.30;3.10;;;;;;;37.69;23.60;99028.13;67748;1280;1016289;-59
2023/08/24 12:22:32;;;;;;;7.80;2.70;;;;;;;37.26;23.46;99021.59;67727;1280;1016155;-59
2023/08/24 12:25:34;;;;;;;8.80;2.80;;;;;;;37.51;23.90;99020.63;67710;1280;1016706;-59
2023/08/24 12:28:37;;;;;;;11.50;2.90;;;;;;;38.23;23.51;99018.34;67753;1280;1016128;-58
2023/08/24 12:31:39;;;;;;;10.90;3.10;;;;;;;38.23;23.09;99022.83;67785;1280;1020890;-59
2023/08/24 12:34:42;;;;;;;9.00;2.90;;;;;;;38.11;23.14;99018.20;67710;1280;1016369;-59
2023/08/24 12:37:45;;;;;;;11.70;2.60;;;;;;;37.98;23.58;99020.19;67750;1280;1016259;-59
2023/08/24 12:40:47;;;;;;;8.30;3.10;;;;;;;38.14;23.39;99015.38;67768;1280;1016322;-57
2023/08/24 12:43:50;;;;;;;7.80;2.70;;;;;;;38.16;23.44;99012.78;67795;1280;1016397;-59
2023/08/24 12:46:53;;;;;;;9.70;2.80;;;;;;;38.00;23.39;99008.70;67745;1280;1016395;-59
2023/08/24 12:49:55;;;;;;;9.10;2.70;;;;;;;38.24;22.89;99002.46;67750;1280;1016295;-59
2023/08/24 12:52:59;;;;;;;10.90;3.00;;;;;;;38.15;23.08;99001.02;67776;1280;1016481;-60
2023/08/24 12:56:02;;;;;;;7.90;2.80;;;;;;;38.32;24.04;98995.20;67755;1280;1019028;-58
2023/08/24 12:59:04;;;;;;;9.40;2.90;;;;;;;38.87;23.32;98995.02;67724;1278;1016043;-59
2023/08/24 13:02:07;;;;;;;8.30;2.60;;;;;;;38.29;22.84;99001.48;67760;1280;1016540;-59
2023/08/24 13:05:09;;;;;;;8.10;2.90;;;;;;;38.14;22.98;98991.59;67714;1280;1016335;-59
2023/08/24 13:08:12;;;;;;;8.70;2.80;;;;;;;37.98;22.89;98990.02;67785;1280;1016376;-59
2023/08/24 13:11:15;;;;;;;11.40;3.20;;;;;;;38.29;23.17;98980.94;67759;1280;1016501;-59
2023/08/24 13:14:17;;;;;;;10.50;3.20;;;;;;;38.61;23.13;98980.64;67717;1280;1016606;-59
2023/08/24 13:17:19;;;;;;;10.10;3.00;;;;;;;38.63;22.95;98976.05;67762;1280;1015975;-59
2023/08/24 13:20:22;;;;;;;10.80;3.10;;;;;;;37.78;23.24;98974.30;67671;1280;1016480;-59
2023/08/24 13:23:24;;;;;;;9.30;2.70;;;;;;;37.30;23.84;98974.91;67709;1280;1016459;-60
2023/08/24 13:26:27;;;;;;;9.10;2.80;;;;;;;37.46;23.62;98971.34;67750;1272;1016620;-60
2023/08/24 13:29:29;;;;;;;9.30;2.90;;;;;;;37.31;23.67;98968.02;67690;1277;1015890;-60
2023/08/24 13:32:32;;;;;;;9.40;2.80;;;;;;;36.90;23.82;98969.52;67707;1280;1018175;-60
2023/08/24 13:35:34;;;;;;;9.40;3.10;;;;;;;36.70;24.28;98959.81;67766;1278;1016465;-60
2023/08/24 13:38:37;;;;;;;8.20;2.80;;;;;;;36.17;24.85;98956.71;67696;1280;1016274;-57
2023/08/24 13:41:39;;;;;;;9.30;3.20;;;;;;;35.59;25.73;98960.33;67710;1280;1016415;-60
2023/08/24 13:44:42;;;;;;;6.90;2.90;;;;;;;35.39;26.04;98957.26;67715;1280;1016706;-60
2023/08/24 13:47:45;;;;;;;8.20;2.80;;;;;;;35.39;26.11;98951.82;67772;1280;1016423;-60
2023/08/24 13:50:48;;;;;;;11.90;3.20;;;;;;;35.42;26.63;98950.33;67748;1280;1016360;-60
2023/08/24 13:53:50;;;;;;;8.50;3.10;;;;;;;35.60;26.75;98946.05;67724;1280;1016488;-60
2023/08/24 13:56:53;;;;;;;9.00;3.00;;;;;;;35.80;26.63;98937.57;67793;1280;1016613;-60
2023/08/24 13:59:56;;;;;;;10.80;3.00;;;;;;;35.99;26.56;98939.09;67568;1280;1016453;-60
2023/08/24 14:02:58;;;;;;;11.00;3.10;;;;;;;36.23;26.45;98940.56;67769;1280;1016260;-61